map of PSY home
PSY - Airport
Location
City:  Stanley, Falkland Islands
Near (Alt.):Port Stanley
Name:Port Stanley
ICAO:SFAL
IATA:PSY

Details
Type:Airport (Aerodrome, Airfield)
Latitude:5141'08"S (-51.685671)
Longitude:5746'40"W (-57.777643)
Datum:WGS 1984
Elevation:75 ft (23 m)
Variation:2.64E (WMM2015 magnetic declination)
-0.08 annual change
Runways:2
Longest:3013 × 63 ft (918 × 19 m), paved

Time
Time Zone:UTC-4 (DST-3)

Weather
METAR:SFAL 161550Z 22025KT 9999 BKN025 08/01 Q0991

Related Locations
Nearby:
Farthest:OHE: 12344 mi / 19866 km
Mohe [Mohe Gulian Airport], 23, CN

Find:

   beyond  
but within

Other Information
Maps:
NOTAMs:
Links:
Sources:

  
  • flag of Falkland Islands
  

Sectional Chart

Flight Planning
at skyvector.com

Satellite Image

Google Maps Satellite view

 

Copyright © 2004-2018 Karl L. Swartz. All rights reserved.
The Great Circle Mapper name and logo are trademarks of the Great Circle Mapper.
All other trademarks mentioned herein belong to their respective owners.
Please see credits for attibutions and further copyright information.

  Follow gcmap on Facebook Follow gcmap on Twitter Follow gcmap on Google+ GCmap on LinkedIn

hCard Microformat

Geo Microformat